Time;durP1;ratioP1;P1;durP2;ratioP2;P2;SDS_P1;SDS_P2;PMS_P1;PMS_P2;Temp;Humidity;BMP_temperature;BMP_pressure;BME280_temperature;BME280_humidity;BME280_pressure;Samples;Min_cycle;Max_cycle;Signal;HPM_P1;HPM_P2
2022/01/01 00:01:24;;;;;;;7.07;4.85;;;13.70;99.90;;;;;;5065439;28;20063;-55
2022/01/01 00:03:51;;;;;;;6.47;4.82;;;13.70;99.90;;;;;;5066741;28;20048;-55
2022/01/01 00:06:18;;;;;;;6.55;4.75;;;13.70;99.90;;;;;;5066413;28;20134;-50
2022/01/01 00:08:46;;;;;;;6.82;4.40;;;13.80;99.90;;;;;;5073349;28;20130;-56
2022/01/01 00:11:17;;;;;;;6.65;4.97;;;13.80;99.90;;;;;;5076031;28;20064;-55
2022/01/01 00:13:50;;;;;;;6.82;5.05;;;13.80;99.90;;;;;;5075326;28;20056;-56
2022/01/01 00:16:17;;;;;;;8.30;5.13;;;13.80;99.90;;;;;;5076432;28;20058;-57
2022/01/01 00:18:44;;;;;;;6.55;5.07;;;13.80;99.90;;;;;;5074459;28;20526;-54
2022/01/01 00:21:11;;;;;;;5.63;4.60;;;13.80;99.90;;;;;;5075063;28;20071;-57
2022/01/01 00:23:38;;;;;;;5.72;5.13;;;13.80;99.90;;;;;;5075178;28;20079;-55
2022/01/01 00:26:06;;;;;;;7.57;5.20;;;13.80;99.90;;;;;;5074233;28;20595;-57
2022/01/01 00:28:34;;;;;;;6.15;5.53;;;13.70;99.90;;;;;;5072362;28;20090;-56
2022/01/01 00:31:01;;;;;;;8.45;7.40;;;13.70;99.90;;;;;;5074987;28;20051;-60
2022/01/01 00:33:29;;;;;;;8.73;7.45;;;13.70;99.90;;;;;;5072174;28;20080;-57
2022/01/01 00:35:56;;;;;;;6.97;6.28;;;13.70;99.90;;;;;;5072257;28;20105;-58
2022/01/01 00:38:24;;;;;;;5.53;4.93;;;13.70;99.90;;;;;;5070259;28;20052;-56
2022/01/01 00:40:51;;;;;;;6.93;5.20;;;13.70;99.90;;;;;;5073075;28;20121;-56
2022/01/01 00:43:18;;;;;;;6.72;4.72;;;13.70;99.90;;;;;;5075304;28;20882;-54
2022/01/01 00:45:45;;;;;;;5.20;4.07;;;13.80;99.90;;;;;;5074723;28;20069;-55
2022/01/01 00:48:12;;;;;;;4.63;3.78;;;13.80;99.90;;;;;;5073120;28;20320;-56
2022/01/01 00:50:38;;;;;;;7.43;4.20;;;13.80;99.90;;;;;;5074602;28;20074;-54
2022/01/01 00:53:06;;;;;;;7.18;4.43;;;13.80;99.90;;;;;;5069902;28;20051;-57
2022/01/01 00:55:33;;;;;;;8.32;4.55;;;13.80;99.90;;;;;;5075905;28;20250;-54
2022/01/01 00:58:00;;;;;;;7.57;5.35;;;13.80;99.90;;;;;;5072438;28;20076;-57
2022/01/01 01:00:27;;;;;;;7.32;5.50;;;13.70;99.90;;;;;;5072835;28;20044;-57
2022/01/01 01:02:54;;;;;;;7.75;5.43;;;13.70;99.90;;;;;;5075826;28;20055;-58
2022/01/01 01:05:20;;;;;;;8.38;5.65;;;13.70;99.90;;;;;;5074048;28;20052;-58
2022/01/01 01:07:47;;;;;;;6.10;5.05;;;13.70;99.90;;;;;;5075582;28;20167;-62
2022/01/01 01:10:14;;;;;;;9.20;6.00;;;13.70;99.90;;;;;;5075740;28;20068;-59
2022/01/01 01:12:45;;;;;;;9.38;5.82;;;13.70;99.90;;;;;;5075510;28;20569;-59
2022/01/01 01:15:17;;;;;;;8.55;5.40;;;13.70;99.90;;;;;;5072254;28;20176;-58
2022/01/01 01:17:48;;;;;;;8.80;5.70;;;13.70;99.90;;;;;;5074987;28;20101;-59
2022/01/01 01:20:15;;;;;;;7.63;5.85;;;13.70;99.90;;;;;;5075419;28;20098;-58
2022/01/01 01:22:42;;;;;;;7.70;5.20;;;13.70;99.90;;;;;;5076067;28;20044;-57
2022/01/01 01:25:09;;;;;;;6.65;5.70;;;13.70;99.90;;;;;;5078126;28;20063;-56
2022/01/01 01:27:37;;;;;;;8.35;5.95;;;13.70;99.90;;;;;;5079904;28;20048;-56
2022/01/01 01:30:05;;;;;;;9.07;5.38;;;13.70;99.90;;;;;;5077585;28;20088;-58
2022/01/01 01:32:32;;;;;;;7.90;5.50;;;13.70;99.90;;;;;;5079283;28;20055;-54
2022/01/01 01:34:59;;;;;;;7.45;5.70;;;13.70;99.90;;;;;;5076597;28;20138;-54
2022/01/01 01:37:26;;;;;;;8.32;6.35;;;13.60;99.90;;;;;;5079466;28;20044;-56
2022/01/01 01:39:53;;;;;;;9.93;5.88;;;13.70;99.90;;;;;;5077944;28;20143;-55
2022/01/01 01:42:20;;;;;;;7.82;5.45;;;13.60;99.90;;;;;;5060618;28;20099;-50
2022/01/01 01:44:48;;;;;;;6.35;5.10;;;13.70;99.90;;;;;;5074992;28;20429;-56
2022/01/01 01:47:16;;;;;;;8.85;6.00;;;13.70;99.90;;;;;;5078067;28;20052;-54
2022/01/01 01:49:44;;;;;;;7.60;5.65;;;13.60;99.90;;;;;;5079707;28;20071;-57
2022/01/01 01:52:12;;;;;;;8.18;5.40;;;13.60;99.90;;;;;;5078260;28;20135;-54
2022/01/01 01:54:39;;;;;;;6.22;4.88;;;13.70;99.90;;;;;;5082005;28;20932;-55
2022/01/01 01:57:06;;;;;;;11.98;6.22;;;13.60;99.90;;;;;;5080035;28;20514;-52
2022/01/01 01:59:33;;;;;;;9.70;5.45;;;13.60;99.90;;;;;;5074706;28;20475;-54
2022/01/01 02:02:00;;;;;;;7.30;5.72;;;13.60;99.90;;;;;;5077330;28;20052;-54
2022/01/01 02:04:27;;;;;;;7.80;6.43;;;13.60;99.90;;;;;;5081075;28;20109;-55
2022/01/01 02:06:54;;;;;;;9.10;7.15;;;13.60;99.90;;;;;;5075828;28;20077;-56
2022/01/01 02:09:21;;;;;;;8.32;5.97;;;13.50;99.90;;;;;;5080480;28;20122;-56
2022/01/01 02:11:48;;;;;;;7.13;5.75;;;13.60;99.90;;;;;;5077697;28;20059;-56
2022/01/01 02:17:08;;;;;;;10.00;6.95;;;13.50;99.90;;;;;;5081180;28;20542;-54
2022/01/01 02:19:59;;;;;;;8.07;5.88;;;13.50;99.90;;;;;;5081533;28;20523;-52
2022/01/01 02:22:27;;;;;;;8.27;5.72;;;13.50;99.90;;;;;;5082246;28;20063;-54
2022/01/01 02:24:54;;;;;;;6.93;5.75;;;13.50;99.90;;;;;;5079530;28;20391;-54
2022/01/01 02:27:21;;;;;;;8.88;5.35;;;13.50;99.90;;;;;;5081070;28;20696;-56
2022/01/01 02:29:48;;;;;;;8.32;6.25;;;13.50;99.90;;;;;;5078645;28;20135;-56
2022/01/01 02:32:15;;;;;;;7.32;5.95;;;13.50;99.90;;;;;;5083776;28;20140;-54
2022/01/01 02:34:42;;;;;;;6.88;6.00;;;13.40;99.90;;;;;;5081008;28;20056;-53
2022/01/01 02:37:08;;;;;;;7.55;5.53;;;13.50;99.90;;;;;;5083614;28;20159;-53
2022/01/01 02:39:35;;;;;;;8.25;5.95;;;13.50;99.90;;;;;;5084941;28;20637;-56
2022/01/01 02:42:02;;;;;;;7.13;5.63;;;13.40;99.90;;;;;;5079926;28;20162;-55
2022/01/01 02:44:29;;;;;;;7.25;6.00;;;13.40;99.90;;;;;;5081586;28;20704;-51
2022/01/01 02:46:57;;;;;;;8.27;5.97;;;13.40;99.90;;;;;;5084450;28;20048;-55
2022/01/01 02:52:23;;;;;;;7.13;5.25;;;13.40;99.90;;;;;;5081122;28;20133;-54
2022/01/01 02:54:50;;;;;;;6.65;5.32;;;13.40;99.90;;;;;;5085349;28;20135;-55
2022/01/01 02:57:17;;;;;;;7.75;5.28;;;13.40;99.90;;;;;;5084149;28;20490;-55
2022/01/01 02:59:44;;;;;;;5.80;4.88;;;13.40;99.90;;;;;;5083159;28;20207;-56
2022/01/01 03:02:10;;;;;;;8.27;5.40;;;13.50;99.90;;;;;;5084079;28;20078;-55
2022/01/01 03:04:37;;;;;;;8.02;5.55;;;13.50;99.90;;;;;;5084208;28;20565;-55
2022/01/01 03:07:04;;;;;;;6.13;4.85;;;13.40;99.90;;;;;;5084675;28;20036;-56
2022/01/01 03:09:37;;;;;;;5.65;4.63;;;13.50;99.90;;;;;;5084504;28;20130;-53
2022/01/01 03:12:05;;;;;;;6.57;4.80;;;13.50;99.90;;;;;;5084328;28;20574;-55
2022/01/01 03:14:34;;;;;;;6.85;4.95;;;13.50;99.90;;;;;;5083616;28;20080;-54
2022/01/01 03:17:01;;;;;;;9.73;5.65;;;13.50;99.90;;;;;;5083980;28;20070;-52
2022/01/01 03:19:28;;;;;;;7.90;5.53;;;13.50;99.90;;;;;;5082542;28;20390;-58
2022/01/01 03:21:55;;;;;;;8.52;5.50;;;13.50;99.90;;;;;;5084282;28;20571;-50
2022/01/01 03:24:22;;;;;;;6.95;5.03;;;13.50;99.90;;;;;;5080706;28;20072;-52
2022/01/01 03:26:49;;;;;;;8.23;5.40;;;13.60;99.90;;;;;;5082201;28;20044;-55
2022/01/01 03:29:16;;;;;;;10.38;6.45;;;13.60;99.90;;;;;;5079933;28;20182;-55
2022/01/01 03:31:43;;;;;;;6.65;5.85;;;13.50;99.90;;;;;;5083496;28;20075;-54
2022/01/01 03:34:10;;;;;;;7.93;5.68;;;13.60;99.90;;;;;;5082150;28;20129;-55
2022/01/01 03:36:36;;;;;;;8.40;5.50;;;13.60;99.90;;;;;;5079661;28;20131;-56
2022/01/01 03:39:04;;;;;;;11.65;6.65;;;13.50;99.90;;;;;;5080534;28;20147;-52
2022/01/01 03:41:31;;;;;;;8.85;5.95;;;13.60;99.90;;;;;;5082756;28;20091;-55
2022/01/01 03:43:57;;;;;;;10.50;5.60;;;13.50;99.90;;;;;;5080990;28;20158;-57
2022/01/01 03:46:24;;;;;;;6.50;5.00;;;13.60;99.90;;;;;;5083980;28;20482;-56
2022/01/01 03:48:51;;;;;;;4.78;4.10;;;13.60;99.90;;;;;;5083936;28;20101;-57
2022/01/01 03:51:18;;;;;;;6.55;4.70;;;13.60;99.90;;;;;;5084118;28;20135;-57
2022/01/01 03:53:44;;;;;;;7.32;4.40;;;13.60;99.90;;;;;;5083905;28;20477;-56
2022/01/01 03:56:11;;;;;;;6.82;4.50;;;13.60;99.90;;;;;;5080901;28;20561;-53
2022/01/01 03:58:38;;;;;;;7.88;4.40;;;13.60;99.90;;;;;;5083596;28;20091;-56
2022/01/01 04:01:05;;;;;;;4.90;3.72;;;13.60;99.90;;;;;;5086310;28;20093;-57
2022/01/01 04:03:32;;;;;;;6.25;4.00;;;13.60;99.90;;;;;;5087309;28;20077;-55
2022/01/01 04:05:59;;;;;;;5.32;3.72;;;13.50;99.90;;;;;;5088556;28;20131;-57
2022/01/01 04:08:25;;;;;;;8.02;4.28;;;13.50;99.90;;;;;;5088358;28;20127;-55
2022/01/01 04:10:52;;;;;;;5.28;3.83;;;13.50;99.90;;;;;;5088385;28;20578;-57
2022/01/01 04:13:19;;;;;;;6.53;4.22;;;13.50;99.90;;;;;;5087616;28;20142;-57
2022/01/01 04:15:45;;;;;;;4.90;3.45;;;13.50;99.90;;;;;;5086905;28;20140;-56
2022/01/01 04:18:18;;;;;;;6.78;3.25;;;13.50;99.90;;;;;;5085045;28;20382;-55
2022/01/01 04:20:47;;;;;;;5.45;3.20;;;13.50;99.90;;;;;;5087763;28;20087;-55
2022/01/01 04:23:14;;;;;;;8.60;3.70;;;13.60;99.90;;;;;;5088178;28;20086;-56
2022/01/01 04:25:40;;;;;;;7.68;3.85;;;13.60;99.90;;;;;;5087724;28;20446;-57
2022/01/01 04:28:07;;;;;;;5.75;3.20;;;13.60;99.90;;;;;;5087349;28;20494;-56
2022/01/01 04:30:34;;;;;;;4.68;3.00;;;13.60;99.90;;;;;;5084806;28;20098;-55
2022/01/01 04:33:01;;;;;;;7.03;3.50;;;13.60;99.90;;;;;;5087458;28;20082;-55
2022/01/01 04:35:27;;;;;;;5.65;4.10;;;13.60;99.90;;;;;;5087604;28;20110;-57
2022/01/01 04:37:54;;;;;;;7.20;3.45;;;13.70;99.90;;;;;;5087738;28;20083;-56
2022/01/01 04:40:21;;;;;;;6.72;3.53;;;13.60;99.90;;;;;;5085323;28;20098;-56
2022/01/01 04:42:48;;;;;;;5.03;3.65;;;13.60;99.90;;;;;;5087620;28;20399;-56
2022/01/01 04:45:15;;;;;;;6.35;3.40;;;13.50;99.90;;;;;;5087309;28;20091;-56
2022/01/01 04:47:41;;;;;;;5.40;3.13;;;13.50;99.90;;;;;;5086996;28;20127;-55
2022/01/01 04:50:08;;;;;;;7.30;3.60;;;13.40;99.90;;;;;;5087516;28;20087;-58
2022/01/01 04:52:35;;;;;;;4.53;3.30;;;13.40;99.90;;;;;;5087585;28;20147;-57
2022/01/01 04:55:02;;;;;;;4.47;3.10;;;13.40;99.90;;;;;;5085350;28;20109;-56
2022/01/01 04:57:30;;;;;;;5.03;3.10;;;13.30;99.90;;;;;;5080041;28;20188;-56
2022/01/01 04:59:58;;;;;;;5.18;3.35;;;13.30;99.90;;;;;;5066157;28;20380;-56
2022/01/01 05:02:26;;;;;;;4.55;2.95;;;13.30;99.90;;;;;;5067045;28;20075;-56
2022/01/01 05:04:53;;;;;;;4.47;3.33;;;13.30;99.90;;;;;;5069457;28;20371;-56
2022/01/01 05:07:21;;;;;;;6.57;3.20;;;13.30;99.90;;;;;;5086494;28;20079;-57
2022/01/01 05:09:48;;;;;;;4.90;2.97;;;13.30;99.90;;;;;;5086722;28;20048;-55
2022/01/01 05:12:15;;;;;;;6.20;3.35;;;13.20;99.90;;;;;;5087008;28;20456;-55
2022/01/01 05:14:42;;;;;;;5.72;3.25;;;13.20;99.90;;;;;;5085837;28;20680;-55
2022/01/01 05:17:09;;;;;;;5.22;3.35;;;13.20;99.90;;;;;;5087720;28;20088;-54
2022/01/01 05:19:36;;;;;;;5.53;3.65;;;13.20;99.90;;;;;;5086131;28;20064;-56
2022/01/01 05:22:03;;;;;;;4.80;3.40;;;13.20;99.90;;;;;;5087746;28;20083;-54
2022/01/01 05:24:30;;;;;;;6.07;3.20;;;13.20;99.90;;;;;;5086624;28;20086;-53
2022/01/01 05:26:58;;;;;;;5.82;3.15;;;13.20;99.90;;;;;;5087366;28;20475;-56
2022/01/01 05:29:24;;;;;;;4.82;3.30;;;13.20;99.90;;;;;;5085450;28;20079;-56
2022/01/01 05:31:51;;;;;;;5.82;3.63;;;13.20;99.90;;;;;;5086829;28;20083;-54
2022/01/01 05:34:18;;;;;;;6.43;3.72;;;13.20;99.90;;;;;;5086269;28;20127;-57
2022/01/01 05:36:45;;;;;;;5.65;3.33;;;13.20;99.90;;;;;;5086805;28;20088;-54
2022/01/01 05:39:11;;;;;;;4.82;3.20;;;13.20;99.90;;;;;;5087150;28;20087;-58
2022/01/01 05:41:38;;;;;;;6.53;3.25;;;13.30;99.90;;;;;;5086842;28;20219;-56
2022/01/01 05:44:05;;;;;;;4.25;3.15;;;13.30;99.90;;;;;;5084275;28;20094;-55
2022/01/01 05:46:32;;;;;;;4.60;3.30;;;13.30;99.90;;;;;;5086234;28;20151;-57
2022/01/01 05:48:59;;;;;;;4.18;3.15;;;13.30;99.90;;;;;;5077450;28;20467;-56
2022/01/01 05:51:26;;;;;;;6.10;3.50;;;13.30;99.90;;;;;;5083022;28;20135;-57
2022/01/01 05:53:52;;;;;;;5.80;3.88;;;13.30;99.90;;;;;;5082669;28;20140;-55
2022/01/01 05:56:19;;;;;;;8.32;3.47;;;13.40;99.90;;;;;;5083077;28;20083;-57
2022/01/01 05:58:46;;;;;;;4.85;3.53;;;13.40;99.90;;;;;;5081644;28;20147;-54
2022/01/01 06:01:12;;;;;;;4.88;3.70;;;13.40;99.90;;;;;;5083079;28;20083;-56
2022/01/01 06:03:40;;;;;;;6.30;4.00;;;13.40;99.90;;;;;;5079479;28;20083;-56
2022/01/01 06:06:06;;;;;;;4.90;3.72;;;13.50;99.90;;;;;;5081138;28;20127;-53
2022/01/01 06:08:53;;;;;;;4.63;3.35;;;13.50;99.90;;;;;;5080976;28;20055;-56
2022/01/01 06:11:20;;;;;;;5.88;3.50;;;13.50;99.90;;;;;;5087573;28;20154;-55
2022/01/01 06:13:46;;;;;;;6.70;3.55;;;13.50;99.90;;;;;;5083247;28;20586;-57
2022/01/01 06:16:13;;;;;;;6.78;3.60;;;13.40;99.90;;;;;;5084785;28;20134;-53
2022/01/01 06:18:40;;;;;;;5.90;3.92;;;13.40;99.90;;;;;;5086840;28;20572;-55
2022/01/01 06:21:06;;;;;;;4.53;3.60;;;13.40;99.90;;;;;;5088056;28;20079;-57
2022/01/01 06:23:37;;;;;;;5.32;3.47;;;13.40;99.90;;;;;;5085673;28;20127;-55
2022/01/01 06:26:04;;;;;;;7.07;4.15;;;13.40;99.90;;;;;;5084784;28;20063;-56
2022/01/01 06:28:31;;;;;;;5.03;3.30;;;13.40;99.90;;;;;;5082298;28;20135;-57
2022/01/01 06:30:57;;;;;;;9.52;3.65;;;13.40;99.90;;;;;;5084179;28;20139;-53
2022/01/01 06:33:24;;;;;;;4.85;3.63;;;13.40;99.90;;;;;;5083342;28;20067;-58
2022/01/01 06:35:53;;;;;;;4.65;3.25;;;13.30;99.90;;;;;;5083096;28;20150;-57
2022/01/01 06:38:20;;;;;;;4.60;3.45;;;13.40;99.90;;;;;;5080610;28;20206;-56
2022/01/01 06:40:46;;;;;;;4.13;3.20;;;13.30;99.90;;;;;;5083936;28;20467;-57
2022/01/01 06:43:15;;;;;;;5.03;3.45;;;13.40;99.90;;;;;;5080397;28;20131;-56
2022/01/01 06:45:42;;;;;;;5.07;3.28;;;13.30;99.90;;;;;;5080191;28;20052;-57
2022/01/01 06:48:09;;;;;;;5.10;3.58;;;13.30;99.90;;;;;;5081336;28;20395;-56
2022/01/01 06:50:38;;;;;;;4.63;3.40;;;13.30;99.90;;;;;;5081184;28;20072;-55
2022/01/01 06:53:11;;;;;;;9.18;3.45;;;13.20;99.90;;;;;;5081434;28;20443;-56
2022/01/01 06:55:38;;;;;;;7.50;3.40;;;13.20;99.90;;;;;;5079067;28;20238;-56
2022/01/01 06:58:05;;;;;;;5.35;3.25;;;13.10;99.90;;;;;;5081882;28;21101;-57
2022/01/01 07:00:32;;;;;;;4.85;3.45;;;13.10;99.90;;;;;;5079793;28;20095;-56
2022/01/01 07:02:59;;;;;;;5.10;3.75;;;13.00;99.90;;;;;;5080925;28;20051;-55
2022/01/01 07:05:25;;;;;;;5.80;4.40;;;13.00;99.90;;;;;;5080764;28;20055;-57
2022/01/01 07:07:52;;;;;;;5.78;3.90;;;12.90;99.90;;;;;;5081352;28;20174;-55
2022/01/01 07:10:19;;;;;;;7.05;4.85;;;12.90;99.90;;;;;;5081688;28;20109;-56
2022/01/01 07:12:46;;;;;;;6.72;4.05;;;12.80;99.90;;;;;;5080976;28;20142;-57
2022/01/01 07:15:15;;;;;;;4.50;3.70;;;12.80;99.90;;;;;;5079319;28;20055;-56
2022/01/01 07:17:42;;;;;;;5.55;3.65;;;12.70;99.90;;;;;;5080378;28;20155;-56
2022/01/01 07:20:09;;;;;;;6.43;4.70;;;12.70;99.90;;;;;;5079949;28;20123;-56
2022/01/01 07:22:44;;;;;;;6.78;4.10;;;12.70;99.90;;;;;;5079620;28;20621;-56
2022/01/01 07:25:12;;;;;;;7.82;4.78;;;12.70;99.90;;;;;;5079679;28;20139;-56
2022/01/01 07:27:39;;;;;;;5.35;3.80;;;12.70;99.90;;;;;;5079780;28;20044;-55
2022/01/01 07:30:06;;;;;;;6.32;3.85;;;12.60;99.90;;;;;;5080089;28;20305;-56
2022/01/01 07:32:45;;;;;;;5.57;3.63;;;12.70;99.90;;;;;;5079932;28;20139;-57
2022/01/01 07:35:13;;;;;;;5.53;3.70;;;12.60;99.90;;;;;;5080079;28;20080;-57
2022/01/01 07:37:39;;;;;;;6.32;3.75;;;12.70;99.90;;;;;;5079788;28;20136;-55
2022/01/01 07:40:08;;;;;;;6.80;4.60;;;12.70;99.90;;;;;;5079507;28;20550;-56
2022/01/01 07:42:35;;;;;;;6.18;4.10;;;12.70;99.90;;;;;;5077339;28;20143;-56
2022/01/01 07:45:02;;;;;;;6.78;3.80;;;12.70;99.90;;;;;;5079564;28;20143;-54
2022/01/01 07:47:29;;;;;;;7.05;3.80;;;12.70;99.90;;;;;;5079857;28;20074;-57
2022/01/01 07:49:55;;;;;;;6.53;3.67;;;12.70;99.90;;;;;;5079803;28;20168;-56
2022/01/01 07:52:22;;;;;;;5.15;3.67;;;12.60;99.90;;;;;;5080833;28;20400;-56
2022/01/01 07:54:49;;;;;;;5.93;3.47;;;12.60;99.90;;;;;;5079460;28;20117;-57
2022/01/01 07:57:17;;;;;;;5.47;3.42;;;12.60;99.90;;;;;;5080242;28;20074;-56
2022/01/01 07:59:44;;;;;;;4.75;2.85;;;12.60;99.90;;;;;;5079725;28;20471;-57
2022/01/01 08:02:10;;;;;;;5.20;3.83;;;12.50;99.90;;;;;;5079334;28;20050;-54
2022/01/01 08:04:37;;;;;;;5.30;3.25;;;12.50;99.90;;;;;;5079659;28;20106;-55
2022/01/01 08:07:04;;;;;;;5.65;3.67;;;12.50;99.90;;;;;;5079724;28;20068;-57
2022/01/01 08:09:51;;;;;;;5.50;3.05;;;12.50;99.90;;;;;;5075518;28;20064;-57
2022/01/01 08:12:17;;;;;;;4.22;2.97;;;12.50;99.90;;;;;;5079748;28;20501;-56
2022/01/01 08:14:44;;;;;;;4.55;2.80;;;12.50;99.90;;;;;;5077951;28;20146;-56
2022/01/01 08:17:11;;;;;;;4.45;2.85;;;12.50;99.90;;;;;;5078267;28;20143;-57
2022/01/01 08:19:38;;;;;;;5.93;3.55;;;12.50;99.90;;;;;;5077916;28;20083;-55
2022/01/01 08:22:05;;;;;;;5.18;3.03;;;12.50;99.90;;;;;;5079250;28;20813;-57
2022/01/01 08:24:32;;;;;;;5.10;2.65;;;12.50;99.90;;;;;;5079517;28;20544;-56
2022/01/01 08:26:59;;;;;;;5.15;3.08;;;12.60;99.90;;;;;;5077450;28;20133;-57
2022/01/01 08:29:28;;;;;;;5.30;2.97;;;12.50;99.90;;;;;;5070098;28;20146;-56
2022/01/01 08:31:56;;;;;;;7.47;2.90;;;12.60;99.90;;;;;;5078983;28;20126;-57
2022/01/01 08:34:23;;;;;;;3.67;2.75;;;12.60;99.90;;;;;;5079049;28;20157;-56
2022/01/01 08:36:50;;;;;;;4.82;2.95;;;12.60;99.90;;;;;;5079508;28;20093;-56
2022/01/01 08:39:17;;;;;;;4.47;3.28;;;12.60;99.90;;;;;;5079034;28;20083;-57
2022/01/01 08:41:44;;;;;;;4.20;2.75;;;12.60;99.90;;;;;;5077467;28;20167;-56
2022/01/01 08:44:11;;;;;;;3.58;2.72;;;12.60;99.90;;;;;;5077538;28;20055;-57
2022/01/01 08:46:38;;;;;;;4.35;2.60;;;12.60;99.90;;;;;;5079538;28;21019;-59
2022/01/01 08:49:05;;;;;;;4.15;2.50;;;12.60;99.90;;;;;;5078382;28;20564;-56
2022/01/01 08:51:35;;;;;;;3.63;2.47;;;12.60;99.90;;;;;;5078692;28;20587;-56
2022/01/01 08:54:02;;;;;;;3.45;2.60;;;12.60;99.90;;;;;;5078045;28;20066;-56
2022/01/01 08:56:30;;;;;;;4.70;2.75;;;12.60;99.90;;;;;;5079056;28;20135;-56
2022/01/01 08:58:56;;;;;;;3.97;2.45;;;12.70;99.90;;;;;;5077664;28;20139;-56
2022/01/01 09:01:23;;;;;;;4.95;2.53;;;12.70;99.90;;;;;;5079069;28;20162;-56
2022/01/01 09:03:50;;;;;;;4.55;2.50;;;12.80;99.90;;;;;;5077964;28;20106;-56
2022/01/01 09:06:17;;;;;;;4.13;2.10;;;12.90;99.90;;;;;;5079136;28;20054;-57
2022/01/01 09:08:44;;;;;;;5.03;2.80;;;12.80;99.90;;;;;;5078931;28;20071;-57
2022/01/01 09:11:12;;;;;;;5.70;2.63;;;12.90;99.90;;;;;;5078604;28;20075;-57
2022/01/01 09:13:42;;;;;;;3.33;2.13;;;12.90;99.90;;;;;;5076991;28;20134;-55
2022/01/01 09:16:13;;;;;;;3.85;2.03;;;12.90;99.90;;;;;;5078817;28;20140;-56
2022/01/01 09:18:41;;;;;;;3.28;2.25;;;13.00;99.90;;;;;;5077866;28;20059;-57
2022/01/01 09:21:07;;;;;;;4.40;2.53;;;13.00;99.90;;;;;;5078138;28;20651;-57
2022/01/01 09:23:34;;;;;;;4.72;2.50;;;13.00;99.90;;;;;;5078745;28;20508;-56
2022/01/01 09:26:01;;;;;;;3.42;2.28;;;13.00;99.90;;;;;;5078363;28;20204;-56
2022/01/01 09:28:29;;;;;;;4.88;2.53;;;13.00;99.90;;;;;;5076856;28;20124;-56
2022/01/01 09:30:57;;;;;;;5.60;2.78;;;13.10;99.90;;;;;;5077281;28;20099;-58
2022/01/01 09:33:27;;;;;;;5.15;2.65;;;13.10;99.90;;;;;;5076896;28;20497;-57
2022/01/01 09:35:54;;;;;;;4.90;2.67;;;13.20;99.90;;;;;;5077156;28;20102;-57
2022/01/01 09:38:21;;;;;;;4.53;3.55;;;13.20;99.90;;;;;;5075902;28;20147;-55
2022/01/01 09:40:48;;;;;;;3.55;2.00;;;13.30;99.90;;;;;;5076902;28;20062;-53
2022/01/01 09:43:15;;;;;;;3.03;1.80;;;13.40;99.90;;;;;;5075971;28;20079;-57
2022/01/01 09:45:42;;;;;;;4.25;1.98;;;13.50;99.90;;;;;;5080719;28;20088;-57
2022/01/01 09:48:08;;;;;;;3.60;2.03;;;13.60;99.90;;;;;;5064233;28;20044;-56
2022/01/01 09:50:38;;;;;;;5.75;2.17;;;13.60;99.90;;;;;;5082114;28;20055;-56
2022/01/01 09:53:05;;;;;;;4.45;2.67;;;13.70;99.90;;;;;;5081992;28;20103;-56
2022/01/01 09:55:31;;;;;;;3.22;1.73;;;13.70;99.90;;;;;;5080276;28;20163;-55
2022/01/01 09:57:58;;;;;;;4.70;2.08;;;13.80;99.90;;;;;;5082360;28;20063;-58
2022/01/01 10:00:25;;;;;;;5.07;2.28;;;13.90;99.90;;;;;;5068404;28;20059;-57
2022/01/01 10:02:52;;;;;;;4.15;2.38;;;13.90;99.90;;;;;;5081889;28;20044;-55
2022/01/01 10:05:19;;;;;;;3.25;1.90;;;13.90;99.90;;;;;;5079833;28;20455;-56
2022/01/01 10:07:45;;;;;;;6.75;2.45;;;14.00;99.90;;;;;;5081989;28;20086;-57
2022/01/01 10:10:22;;;;;;;6.45;2.45;;;14.00;99.90;;;;;;5079046;28;20109;-55
2022/01/01 10:12:48;;;;;;;5.35;2.55;;;14.10;99.90;;;;;;5077648;28;20072;-57
2022/01/01 10:15:17;;;;;;;3.33;2.33;;;14.10;99.90;;;;;;5080269;28;20097;-58
2022/01/01 10:17:45;;;;;;;5.60;2.38;;;14.30;99.90;;;;;;5080319;28;20135;-58
2022/01/01 10:20:12;;;;;;;4.53;2.15;;;14.30;99.90;;;;;;5078960;28;20047;-58
2022/01/01 10:22:40;;;;;;;3.92;2.20;;;14.40;99.90;;;;;;5080322;28;20399;-58
2022/01/01 10:27:58;;;;;;;4.28;2.15;;;14.70;99.90;;;;;;5078756;28;20264;-58
2022/01/01 10:30:32;;;;;;;5.85;2.10;;;14.70;99.90;;;;;;5084584;28;20063;-57
2022/01/01 10:33:06;;;;;;;5.05;2.20;;;14.80;99.90;;;;;;5080078;28;20081;-58
2022/01/01 10:35:45;;;;;;;5.05;2.13;;;14.80;99.90;;;;;;5078611;28;20139;-58
2022/01/01 10:38:20;;;;;;;6.07;2.55;;;14.80;99.90;;;;;;5079791;28;20052;-55
2022/01/01 10:40:48;;;;;;;3.33;2.15;;;14.70;99.90;;;;;;5081192;28;20072;-57
2022/01/01 10:43:15;;;;;;;5.50;3.47;;;14.70;99.90;;;;;;5072747;28;20197;-58
2022/01/01 10:45:47;;;;;;;4.18;2.17;;;14.70;99.90;;;;;;5079290;28;20626;-57
2022/01/01 10:48:40;;;;;;;6.18;2.80;;;14.80;99.90;;;;;;5078895;28;20063;-58
2022/01/01 10:51:08;;;;;;;6.85;3.00;;;14.80;99.90;;;;;;5079766;28;20067;-58
2022/01/01 10:53:35;;;;;;;4.53;2.20;;;14.80;99.90;;;;;;5078613;28;20416;-56
2022/01/01 10:56:03;;;;;;;5.38;2.33;;;14.90;99.90;;;;;;5077957;28;20125;-58
2022/01/01 10:58:32;;;;;;;6.50;2.33;;;14.90;99.90;;;;;;5078156;28;20087;-55
2022/01/01 11:01:00;;;;;;;7.07;3.17;;;14.90;99.90;;;;;;5080386;28;20130;-58
2022/01/01 11:03:28;;;;;;;5.93;2.22;;;14.80;99.90;;;;;;5079965;28;20092;-57
2022/01/01 11:06:12;;;;;;;5.68;2.33;;;14.80;99.90;;;;;;5081126;28;20056;-57
2022/01/01 11:08:42;;;;;;;;;;;14.80;99.90;;;;;;5080461;28;20144;-58
2022/01/01 11:11:13;;;;;;;5.45;2.15;;;14.80;99.90;;;;;;5080654;28;20014;-58
2022/01/01 11:13:40;;;;;;;5.03;2.70;;;14.80;99.90;;;;;;5079164;28;20056;-57
2022/01/01 11:16:07;;;;;;;4.55;2.20;;;14.80;99.90;;;;;;5081355;28;20143;-58
2022/01/01 11:18:35;;;;;;;2.63;1.73;;;14.90;99.90;;;;;;5080400;28;20044;-58
2022/01/01 11:21:03;;;;;;;5.22;2.22;;;15.00;99.90;;;;;;5081218;28;20148;-58
2022/01/01 11:23:30;;;;;;;7.45;2.47;;;15.00;99.90;;;;;;5079902;28;20139;-58
2022/01/01 11:25:57;;;;;;;4.20;2.25;;;15.00;99.90;;;;;;5080597;28;20058;-58
2022/01/01 11:28:24;;;;;;;5.45;2.03;;;15.00;99.90;;;;;;5078502;28;20052;-53
2022/01/01 11:31:12;;;;;;;4.43;2.10;;;15.00;99.90;;;;;;5078331;28;20495;-59
2022/01/01 11:33:43;;;;;;;7.32;2.58;;;15.00;99.90;;;;;;5063232;28;20083;-58
2022/01/01 11:36:23;;;;;;;5.10;2.10;;;14.90;99.90;;;;;;5078608;28;20079;-58
2022/01/01 11:38:51;;;;;;;6.43;2.35;;;15.00;99.90;;;;;;5077593;28;20555;-58
2022/01/01 11:41:18;;;;;;;7.30;2.33;;;15.00;99.90;;;;;;5059591;28;20094;-59
2022/01/01 11:43:52;;;;;;;9.63;2.97;;;15.10;99.90;;;;;;5073732;28;20458;-59
2022/01/01 11:46:27;;;;;;;8.55;3.55;;;15.20;99.90;;;;;;5075573;28;20052;-59
2022/01/01 11:49:00;;;;;;;7.40;2.53;;;15.30;99.90;;;;;;5078330;28;20052;-58
2022/01/01 11:51:38;;;;;;;3.97;1.92;;;15.30;99.90;;;;;;5079665;28;20047;-58
2022/01/01 11:54:22;;;;;;;4.18;2.15;;;15.30;99.90;;;;;;5078880;28;20044;-57
2022/01/01 11:56:49;;;;;;;5.05;2.45;;;15.30;99.90;;;;;;5078861;28;20067;-59
2022/01/01 11:59:22;;;;;;;5.20;1.88;;;15.30;99.90;;;;;;5078896;28;20467;-59
2022/01/01 12:01:49;;;;;;;6.60;2.67;;;15.30;99.90;;;;;;5080565;28;20151;-57
2022/01/01 12:04:24;;;;;;;4.80;2.58;;;15.20;99.90;;;;;;5077303;28;20419;-58
2022/01/01 12:06:53;;;;;;;5.43;2.28;;;15.20;99.90;;;;;;5076910;28;20674;-60
2022/01/01 12:09:20;;;;;;;4.63;2.20;;;15.30;99.90;;;;;;5077527;28;20134;-60
2022/01/01 12:11:54;;;;;;;4.80;2.10;;;15.30;99.90;;;;;;5080164;28;20399;-59
2022/01/01 12:14:30;;;;;;;5.88;2.40;;;15.40;99.90;;;;;;5077375;28;20131;-59
2022/01/01 12:16:57;;;;;;;7.80;3.05;;;15.50;99.90;;;;;;5077863;28;20047;-59
2022/01/01 12:19:24;;;;;;;5.53;2.30;;;15.70;99.90;;;;;;5079419;28;20147;-59
2022/01/01 12:22:05;;;;;;;5.90;2.40;;;15.90;99.90;;;;;;5075867;28;20532;-59
2022/01/01 12:24:38;;;;;;;6.57;2.75;;;16.00;99.90;;;;;;5078217;28;20126;-59
2022/01/01 12:27:10;;;;;;;4.32;2.28;;;16.20;99.90;;;;;;5076889;28;20131;-59
2022/01/01 12:29:37;;;;;;;5.50;2.20;;;16.30;99.90;;;;;;5077171;28;20047;-57
2022/01/01 12:32:07;;;;;;;6.13;2.40;;;16.30;99.90;;;;;;5077449;28;20135;-59
2022/01/01 12:34:38;;;;;;;5.10;1.95;;;16.30;99.90;;;;;;5077582;28;20052;-59
2022/01/01 12:37:07;;;;;;;4.03;2.30;;;16.20;99.90;;;;;;5077931;28;20170;-57
2022/01/01 12:39:59;;;;;;;4.55;2.10;;;16.10;99.90;;;;;;5078543;28;20080;-59
2022/01/01 12:42:30;;;;;;;6.70;2.20;;;16.10;99.90;;;;;;5076816;28;20052;-59
2022/01/01 12:44:58;;;;;;;7.65;2.85;;;16.10;99.90;;;;;;5077246;28;20617;-57
2022/01/01 12:47:29;;;;;;;5.57;2.08;;;16.00;99.90;;;;;;5073848;28;20056;-59
2022/01/01 12:49:58;;;;;;;5.50;2.00;;;15.90;99.90;;;;;;5077793;28;20120;-59
2022/01/01 12:52:25;;;;;;;4.32;2.10;;;15.80;99.90;;;;;;5079054;28;20446;-59
2022/01/01 12:54:56;;;;;;;6.53;2.60;;;15.80;99.90;;;;;;5075941;28;20129;-59
2022/01/01 12:57:23;;;;;;;3.83;1.92;;;15.60;99.90;;;;;;5075664;28;20052;-59
2022/01/01 12:59:50;;;;;;;4.38;2.30;;;15.60;99.90;;;;;;5076316;28;20134;-59
2022/01/01 13:02:18;;;;;;;3.97;2.00;;;15.60;99.90;;;;;;5077959;28;20158;-60